createdAt,value
2023-01-06T00:00:03.646Z,59.56
2023-01-06T00:01:03.445Z,46.56
2023-01-06T00:02:04.223Z,51.37
2023-01-06T00:03:03.495Z,51.59
2023-01-06T00:04:03.674Z,45.30
2023-01-06T00:05:03.455Z,51.60
2023-01-06T00:06:03.570Z,54.60
2023-01-06T00:07:03.408Z,54.21
2023-01-06T00:08:03.413Z,45.25
2023-01-06T00:09:03.429Z,52.11
2023-01-06T00:10:03.405Z,51.02
2023-01-06T00:11:03.774Z,46.00
2023-01-06T00:12:03.549Z,48.06
2023-01-06T00:13:03.370Z,44.95
2023-01-06T00:14:03.386Z,46.32
2023-01-06T00:15:03.496Z,52.57
2023-01-06T00:16:03.350Z,61.37
2023-01-06T00:17:03.354Z,48.93
2023-01-06T00:18:03.429Z,51.94
2023-01-06T00:19:37.224Z,49.93
2023-01-06T00:20:03.368Z,45.20
2023-01-06T00:21:03.347Z,54.90
2023-01-06T00:22:03.316Z,45.14
2023-01-06T00:23:03.324Z,52.43
2023-01-06T00:24:03.371Z,44.86
2023-01-06T00:25:03.292Z,44.80
2023-01-06T00:26:03.331Z,49.58
2023-01-06T00:27:03.344Z,52.48
2023-01-06T00:28:03.302Z,45.68
2023-01-06T00:29:03.267Z,46.02
2023-01-06T00:30:03.298Z,46.09
2023-01-06T00:31:03.341Z,46.03
2023-01-06T00:32:03.308Z,45.26
2023-01-06T00:33:03.262Z,51.18
2023-01-06T00:34:03.215Z,57.65
2023-01-06T00:35:03.218Z,55.61
2023-01-06T00:36:03.190Z,56.92
2023-01-06T00:37:03.181Z,45.24
2023-01-06T00:38:03.211Z,51.29
2023-01-06T00:39:03.273Z,45.91
2023-01-06T00:40:03.332Z,56.46
2023-01-06T00:41:03.221Z,44.82
2023-01-06T00:42:03.153Z,44.86
2023-01-06T00:43:03.128Z,45.22
2023-01-06T00:44:03.160Z,50.81
2023-01-06T00:45:03.135Z,45.05
2023-01-06T00:46:03.201Z,49.34
2023-01-06T00:47:03.196Z,55.90
2023-01-06T00:48:03.123Z,44.90
2023-01-06T00:49:05.581Z,44.84
2023-01-06T00:50:04.095Z,44.87
2023-01-06T00:51:03.081Z,44.98
2023-01-06T00:52:03.085Z,51.38
2023-01-06T00:53:03.102Z,50.64
2023-01-06T00:54:03.049Z,44.79
2023-01-06T00:55:03.063Z,44.86
2023-01-06T00:56:03.041Z,45.07
2023-01-06T00:57:03.044Z,51.35
2023-01-06T00:58:03.034Z,51.26
2023-01-06T00:59:03.025Z,58.88
2023-01-06T01:00:03.009Z,46.56
2023-01-06T01:01:02.993Z,58.48
2023-01-06T01:02:03.178Z,52.49
2023-01-06T01:03:03.115Z,51.96
2023-01-06T01:04:02.973Z,45.28
2023-01-06T01:05:02.979Z,45.37
2023-01-06T01:06:02.998Z,52.01
2023-01-06T01:07:02.956Z,49.01
2023-01-06T01:08:02.929Z,47.29
2023-01-06T01:09:02.918Z,47.95
2023-01-06T01:10:02.947Z,45.38
2023-01-06T01:11:03.351Z,52.26
2023-01-06T01:12:03.949Z,62.96
2023-01-06T01:13:02.902Z,58.97
2023-01-06T01:14:02.891Z,56.23
2023-01-06T01:15:02.888Z,48.89
2023-01-06T01:16:02.970Z,59.75
2023-01-06T01:17:02.930Z,47.75
2023-01-06T01:18:02.865Z,45.41
2023-01-06T01:19:02.946Z,56.71
2023-01-06T01:20:02.850Z,54.99
2023-01-06T01:21:02.857Z,49.71
2023-01-06T01:22:02.836Z,48.17
2023-01-06T01:23:02.849Z,50.70
2023-01-06T01:24:02.835Z,45.40
2023-01-06T01:25:02.799Z,44.87
2023-01-06T01:26:02.803Z,44.88
2023-01-06T01:27:02.788Z,45.00
2023-01-06T01:28:02.797Z,45.33
2023-01-06T01:29:02.836Z,51.23
2023-01-06T01:30:02.803Z,51.39
2023-01-06T01:31:02.808Z,45.08
2023-01-06T01:32:02.767Z,45.89
2023-01-06T01:33:02.833Z,48.23
2023-01-06T01:34:02.761Z,51.85
2023-01-06T01:35:02.805Z,46.15
2023-01-06T01:36:02.729Z,49.24
2023-01-06T01:37:02.695Z,44.87
2023-01-06T01:38:02.719Z,44.87
2023-01-06T01:39:02.755Z,44.90
2023-01-06T01:40:02.703Z,45.00
2023-01-06T01:41:02.687Z,44.85
2023-01-06T01:42:02.683Z,44.94
2023-01-06T01:43:02.678Z,50.01
2023-01-06T01:44:02.679Z,45.14
2023-01-06T01:45:02.768Z,49.96
2023-01-06T01:46:02.725Z,49.35
2023-01-06T01:47:02.646Z,52.83
2023-01-06T01:48:02.661Z,54.29
2023-01-06T01:49:02.665Z,53.10
2023-01-06T01:50:02.746Z,52.24
2023-01-06T01:51:02.708Z,51.93
2023-01-06T01:52:02.605Z,52.02
2023-01-06T01:53:02.592Z,49.95
2023-01-06T01:54:02.609Z,45.43
2023-01-06T01:55:02.603Z,51.56
2023-01-06T01:56:02.554Z,45.40
2023-01-06T01:57:02.577Z,49.83
2023-01-06T01:58:02.571Z,52.53
2023-01-06T01:59:02.543Z,52.51
2023-01-06T02:00:02.554Z,57.58
2023-01-06T02:01:02.561Z,49.07
2023-01-06T02:02:02.656Z,54.76
2023-01-06T02:03:02.549Z,46.09
2023-01-06T02:04:02.522Z,46.74
2023-01-06T02:05:02.536Z,56.93
2023-01-06T02:06:02.549Z,56.35
2023-01-06T02:07:02.519Z,48.68
2023-01-06T02:08:02.497Z,52.54
2023-01-06T02:09:02.468Z,45.21
2023-01-06T02:10:02.480Z,53.22
2023-01-06T02:11:02.463Z,47.02
2023-01-06T02:12:02.565Z,50.01
2023-01-06T02:13:02.495Z,45.27
2023-01-06T02:14:02.466Z,45.23
2023-01-06T02:15:02.415Z,45.49
2023-01-06T02:16:02.441Z,54.96
2023-01-06T02:17:02.424Z,45.49
2023-01-06T02:18:02.497Z,51.72
2023-01-06T02:19:34.774Z,45.64
2023-01-06T02:20:34.315Z,44.95
2023-01-06T02:21:02.388Z,45.23
2023-01-06T02:22:02.461Z,50.76
2023-01-06T02:23:02.454Z,44.91
2023-01-06T02:24:02.361Z,45.18
2023-01-06T02:25:02.377Z,45.14
2023-01-06T02:26:02.350Z,44.96
2023-01-06T02:27:02.332Z,44.90
2023-01-06T02:28:34.262Z,51.36
2023-01-06T02:29:02.416Z,45.51
2023-01-06T02:30:02.427Z,45.26
2023-01-06T02:31:02.361Z,45.04
2023-01-06T02:32:02.278Z,45.04
2023-01-06T02:33:02.298Z,45.17
2023-01-06T02:34:02.296Z,45.19
2023-01-06T02:35:02.296Z,45.87
2023-01-06T02:36:02.258Z,46.17
2023-01-06T02:37:02.287Z,46.36
2023-01-06T02:38:02.219Z,46.30
2023-01-06T02:39:02.323Z,45.58
2023-01-06T02:40:03.195Z,51.00
2023-01-06T02:41:02.269Z,50.57
2023-01-06T02:42:02.755Z,44.98
2023-01-06T02:43:34.111Z,45.10
2023-01-06T02:44:02.274Z,45.15
2023-01-06T02:45:02.342Z,50.52
2023-01-06T02:46:02.292Z,45.47
2023-01-06T02:47:02.196Z,46.33
2023-01-06T02:48:02.189Z,55.64
2023-01-06T02:49:02.271Z,51.56
2023-01-06T02:50:02.186Z,45.13
2023-01-06T02:51:02.148Z,46.75
2023-01-06T02:52:02.168Z,51.30
2023-01-06T02:53:02.100Z,45.25
2023-01-06T02:54:02.142Z,55.65
2023-01-06T02:55:02.191Z,46.16
2023-01-06T02:56:02.105Z,44.99
2023-01-06T02:57:02.113Z,45.02
2023-01-06T02:58:02.107Z,45.96
2023-01-06T02:59:02.083Z,56.00
2023-01-06T03:00:02.050Z,49.27
2023-01-06T03:01:02.071Z,47.31
2023-01-06T03:02:02.175Z,46.27
2023-01-06T03:03:02.084Z,45.51
2023-01-06T03:04:02.046Z,45.37
2023-01-06T03:05:02.101Z,45.62
2023-01-06T03:06:02.124Z,57.05
2023-01-06T03:07:02.055Z,49.44
2023-01-06T03:08:02.027Z,47.25
2023-01-06T03:09:01.993Z,52.90
2023-01-06T03:10:01.993Z,51.68
2023-01-06T03:11:02.119Z,45.50
2023-01-06T03:12:01.984Z,45.22
2023-01-06T03:13:01.968Z,48.60
2023-01-06T03:14:01.980Z,51.22
2023-01-06T03:15:01.966Z,45.07
2023-01-06T03:16:01.999Z,45.00
2023-01-06T03:17:01.953Z,52.05
2023-01-06T03:18:01.950Z,45.43
2023-01-06T03:19:01.925Z,52.61
2023-01-06T03:20:01.967Z,49.17
2023-01-06T03:21:01.904Z,45.31
2023-01-06T03:22:01.904Z,51.13
2023-01-06T03:23:01.902Z,51.87
2023-01-06T03:24:01.908Z,45.66
2023-01-06T03:25:34.269Z,52.22
2023-01-06T03:26:01.844Z,55.98
2023-01-06T03:27:02.941Z,45.64
2023-01-06T03:28:01.926Z,50.49
2023-01-06T03:29:01.909Z,45.76
2023-01-06T03:30:01.847Z,52.38
2023-01-06T03:31:01.889Z,46.06
2023-01-06T03:32:01.842Z,51.70
2023-01-06T03:33:01.843Z,45.72
2023-01-06T03:34:01.811Z,45.64
2023-01-06T03:35:01.804Z,51.17
2023-01-06T03:36:01.789Z,52.61
2023-01-06T03:37:01.796Z,48.51
2023-01-06T03:38:01.784Z,51.70
2023-01-06T03:39:01.768Z,47.08
2023-01-06T03:40:01.778Z,52.82
2023-01-06T03:41:01.729Z,55.95
2023-01-06T03:42:01.775Z,51.97
2023-01-06T03:43:01.803Z,53.50
2023-01-06T03:44:01.738Z,47.50
2023-01-06T03:45:01.733Z,55.96
2023-01-06T03:46:01.727Z,56.89
2023-01-06T03:47:01.711Z,55.69
2023-01-06T04:04:15.586Z,57.06
2023-01-06T04:05:22.628Z,51.42
2023-01-06T04:06:15.558Z,51.39
2023-01-06T04:07:15.554Z,46.32
2023-01-06T04:08:15.569Z,63.05
2023-01-06T04:09:15.530Z,55.34
2023-01-06T04:10:15.558Z,60.21
2023-01-06T04:11:15.515Z,59.54
2023-01-06T04:12:15.508Z,61.75
2023-01-06T04:13:15.533Z,45.79
2023-01-06T04:14:15.565Z,53.44
2023-01-06T04:15:15.490Z,57.32
2023-01-06T04:16:15.534Z,48.86
2023-01-06T04:17:15.493Z,57.98
2023-01-06T04:18:15.495Z,61.18
2023-01-06T04:19:15.558Z,57.09
2023-01-06T04:20:15.484Z,49.50
2023-01-06T04:21:15.446Z,67.71
2023-01-06T04:22:16.617Z,54.22
2023-01-06T04:23:16.589Z,60.19
2023-01-06T04:24:16.565Z,54.82
2023-01-06T04:25:16.564Z,59.49
2023-01-06T04:26:16.544Z,58.89
2023-01-06T04:27:16.551Z,49.18
2023-01-06T04:28:16.540Z,61.70
2023-01-06T04:29:16.612Z,56.16
2023-01-06T04:30:16.520Z,54.56
2023-01-06T04:31:16.581Z,64.36
2023-01-06T04:32:16.508Z,64.12
2023-01-06T04:33:16.487Z,66.30
2023-01-06T04:34:17.508Z,61.64
2023-01-06T04:35:16.544Z,60.03
2023-01-06T04:36:16.508Z,63.55
2023-01-06T04:37:16.458Z,58.25
2023-01-06T04:38:16.490Z,59.97
2023-01-06T04:39:16.455Z,61.99
2023-01-06T04:40:16.476Z,68.18
2023-01-06T04:41:17.261Z,65.60
2023-01-06T04:42:16.431Z,61.48
2023-01-06T04:43:16.460Z,60.60
2023-01-06T04:44:16.460Z,66.47
2023-01-06T04:45:16.426Z,69.68
2023-01-06T04:46:16.889Z,59.06
2023-01-06T04:47:16.384Z,56.22
2023-01-06T04:48:16.376Z,58.38
2023-01-06T04:49:16.370Z,67.13
2023-01-06T04:50:16.375Z,58.78
2023-01-06T04:51:16.521Z,63.91
2023-01-06T04:52:16.360Z,66.12
2023-01-06T04:53:16.332Z,62.26
2023-01-06T04:54:16.341Z,54.72
2023-01-06T04:55:17.361Z,54.11
2023-01-06T04:56:16.316Z,61.77
2023-01-06T04:57:16.337Z,54.80
2023-01-06T04:58:16.294Z,64.38
2023-01-06T04:59:16.291Z,60.78
2023-01-06T05:00:16.349Z,60.49
2023-01-06T05:01:16.375Z,52.10
2023-01-06T05:02:16.343Z,65.67
2023-01-06T05:03:16.285Z,57.41
2023-01-06T05:04:16.308Z,59.46
2023-01-06T05:05:16.348Z,66.30
2023-01-06T05:06:16.234Z,59.66
2023-01-06T05:07:16.316Z,64.54
2023-01-06T05:08:17.245Z,67.45
2023-01-06T05:09:16.227Z,65.87
2023-01-06T05:10:16.221Z,65.51
2023-01-06T05:11:16.223Z,57.68
2023-01-06T05:12:16.171Z,62.85
2023-01-06T05:13:16.189Z,64.15
2023-01-06T05:14:48.115Z,58.22
2023-01-06T05:15:16.150Z,68.98
2023-01-06T05:16:17.198Z,64.51
2023-01-06T05:17:16.210Z,54.43
2023-01-06T05:18:16.220Z,60.48
2023-01-06T05:19:16.164Z,60.07
2023-01-06T05:20:16.150Z,65.31
2023-01-06T05:21:16.145Z,65.69
2023-01-06T05:22:16.144Z,64.23
2023-01-06T05:23:16.149Z,62.17
2023-01-06T05:24:16.159Z,66.36
2023-01-06T05:25:16.094Z,60.62
2023-01-06T05:26:16.099Z,64.91
2023-01-06T05:27:16.113Z,58.09
2023-01-06T05:28:16.078Z,60.21
2023-01-06T05:29:16.069Z,57.83
2023-01-06T05:30:16.055Z,70.81
2023-01-06T05:31:16.130Z,62.43
2023-01-06T05:32:16.087Z,61.35
2023-01-06T05:33:16.040Z,64.35
2023-01-06T05:34:16.052Z,62.40
2023-01-06T05:35:16.023Z,62.05
2023-01-06T05:36:16.008Z,66.06
2023-01-06T05:37:16.122Z,60.55
2023-01-06T05:38:16.076Z,58.62
2023-01-06T05:39:16.072Z,67.14
2023-01-06T05:40:15.976Z,66.68
2023-01-06T05:41:15.977Z,67.17
2023-01-06T05:42:15.991Z,58.86
2023-01-06T05:43:16.116Z,59.12
2023-01-06T05:44:16.015Z,60.47
2023-01-06T05:45:15.955Z,68.15
2023-01-06T05:46:15.973Z,65.87
2023-01-06T05:47:15.955Z,70.60
2023-01-06T05:48:15.916Z,62.11
2023-01-06T05:49:15.935Z,67.22
2023-01-06T05:50:15.938Z,65.27
2023-01-06T05:51:16.944Z,60.34
2023-01-06T05:52:15.917Z,65.06
2023-01-06T05:53:15.925Z,64.21
2023-01-06T05:54:16.777Z,62.14
2023-01-06T05:55:15.862Z,61.33
2023-01-06T05:56:48.802Z,67.75
2023-01-06T05:57:15.882Z,70.26
2023-01-06T05:58:15.850Z,60.03
2023-01-06T05:59:16.895Z,64.21
2023-01-06T06:00:15.831Z,67.58
2023-01-06T06:01:16.660Z,61.37
2023-01-06T06:02:16.850Z,64.52
2023-01-06T06:03:15.986Z,64.32
2023-01-06T06:04:15.853Z,67.27
2023-01-06T06:05:15.800Z,66.91
2023-01-06T06:08:13.677Z,61.95
2023-01-06T06:09:13.712Z,61.79
2023-01-06T06:10:13.664Z,65.96
2023-01-06T06:11:13.817Z,66.56
2023-01-06T06:12:14.827Z,65.47
2023-01-06T06:13:14.912Z,70.98
2023-01-06T06:14:17.156Z,69.42
2023-01-06T06:15:14.874Z,67.19
2023-01-06T06:16:14.864Z,64.87
2023-01-06T06:17:14.778Z,64.94
2023-01-06T06:18:14.753Z,67.70
2023-01-06T06:19:14.788Z,68.30
2023-01-06T06:20:14.742Z,68.85
2023-01-06T06:21:14.760Z,66.75
2023-01-06T06:22:14.717Z,70.65
2023-01-06T06:23:14.715Z,58.83
2023-01-06T06:24:14.752Z,66.96
2023-01-06T06:25:14.692Z,67.89
2023-01-06T06:26:14.707Z,67.24
2023-01-06T06:27:14.757Z,65.57
2023-01-06T06:28:14.688Z,71.50
2023-01-06T06:29:14.664Z,65.38
2023-01-06T06:30:14.661Z,59.05
2023-01-06T06:31:14.694Z,67.33
2023-01-06T06:32:14.647Z,69.28
2023-01-06T06:33:14.628Z,66.53
2023-01-06T06:34:14.618Z,69.71
2023-01-06T06:35:14.642Z,69.59
2023-01-06T06:36:46.548Z,69.10
2023-01-06T06:37:14.616Z,59.40
2023-01-06T06:38:14.680Z,69.53
2023-01-06T06:39:15.603Z,67.61
2023-01-06T06:40:14.597Z,69.64
2023-01-06T06:41:14.583Z,68.51
2023-01-06T06:42:14.731Z,64.04
2023-01-06T06:43:14.632Z,69.37
2023-01-06T06:44:14.546Z,65.37
2023-01-06T06:45:14.547Z,66.72
2023-01-06T06:46:14.530Z,68.21
2023-01-06T06:47:14.573Z,66.34
2023-01-06T06:48:14.520Z,68.96
2023-01-06T06:49:14.512Z,63.30
2023-01-06T06:50:14.507Z,57.27
2023-01-06T06:51:14.527Z,70.15
2023-01-06T06:52:14.529Z,64.87
2023-01-06T06:53:14.475Z,65.34
2023-01-06T06:54:14.512Z,66.45
2023-01-06T06:55:14.462Z,66.77
2023-01-06T06:56:14.482Z,57.75
2023-01-06T06:57:14.480Z,64.19
2023-01-06T06:58:15.232Z,61.53
2023-01-06T06:59:14.599Z,65.06
2023-01-06T07:00:14.484Z,64.21
2023-01-06T07:01:14.611Z,59.72
2023-01-06T07:02:14.544Z,65.60
2023-01-06T07:03:14.401Z,68.43
2023-01-06T07:04:14.518Z,64.18
2023-01-06T07:05:14.404Z,64.15
2023-01-06T07:06:14.384Z,62.43
2023-01-06T07:07:14.385Z,66.42
2023-01-06T07:08:15.154Z,60.18
2023-01-06T07:09:14.384Z,65.37
2023-01-06T07:10:14.362Z,66.44
2023-01-06T07:11:14.360Z,60.80
2023-01-06T07:12:14.352Z,70.45
2023-01-06T07:13:14.360Z,70.26
2023-01-06T07:14:14.360Z,66.15
2023-01-06T07:15:46.359Z,67.61
2023-01-06T07:16:14.385Z,65.17
2023-01-06T07:17:14.355Z,69.88
2023-01-06T07:18:14.315Z,67.29
2023-01-06T07:19:14.367Z,63.85
2023-01-06T07:20:14.318Z,64.90
2023-01-06T07:21:14.287Z,66.25
2023-01-06T07:22:14.293Z,65.37
2023-01-06T07:23:14.354Z,58.67
2023-01-06T07:24:14.244Z,67.18
2023-01-06T07:25:14.252Z,61.48
2023-01-06T07:26:14.246Z,66.18
2023-01-06T07:27:14.233Z,64.44
2023-01-06T07:28:14.227Z,61.31
2023-01-06T07:29:14.202Z,67.11
2023-01-06T07:30:14.250Z,63.03
2023-01-06T07:31:14.398Z,61.85
2023-01-06T07:32:14.186Z,60.27
2023-01-06T07:33:14.213Z,66.30
2023-01-06T07:34:14.212Z,59.06
2023-01-06T07:35:14.167Z,62.59
2023-01-06T07:36:14.157Z,61.21
2023-01-06T07:37:14.155Z,67.01
2023-01-06T07:38:14.207Z,64.23
2023-01-06T07:39:14.162Z,66.00
2023-01-06T07:40:14.164Z,66.36
2023-01-06T07:41:14.118Z,58.71
2023-01-06T07:42:14.112Z,64.19
2023-01-06T07:43:14.112Z,60.32
2023-01-06T07:44:14.690Z,64.67
2023-01-06T07:45:14.116Z,66.48
2023-01-06T07:46:14.137Z,66.58
2023-01-06T07:47:14.063Z,65.75
2023-01-06T07:48:14.073Z,63.04
2023-01-06T07:49:14.089Z,55.85
2023-01-06T07:50:14.059Z,68.83
2023-01-06T07:51:14.030Z,58.99
2023-01-06T07:52:14.035Z,71.91
2023-01-06T07:53:14.058Z,68.55
2023-01-06T07:54:14.017Z,70.04
2023-01-06T07:55:14.024Z,67.60
2023-01-06T07:56:14.021Z,57.45
2023-01-06T07:57:13.984Z,65.14
2023-01-06T07:58:14.009Z,59.97
2023-01-06T07:59:13.967Z,64.39
2023-01-06T08:00:14.014Z,62.49
2023-01-06T08:01:14.749Z,65.15
2023-01-06T08:02:14.074Z,60.22
2023-01-06T08:03:14.982Z,67.59
2023-01-06T08:04:13.938Z,61.12
2023-01-06T08:05:13.943Z,64.37
2023-01-06T08:06:14.015Z,67.26
2023-01-06T08:07:13.917Z,60.23
2023-01-06T08:08:13.911Z,67.92
2023-01-06T08:09:13.929Z,65.90
2023-01-06T08:10:13.935Z,67.68
2023-01-06T08:11:14.059Z,64.05
2023-01-06T08:12:13.874Z,66.52
2023-01-06T08:13:13.866Z,64.58
2023-01-06T08:14:14.655Z,60.91
2023-01-06T08:15:13.851Z,69.00
2023-01-06T08:16:13.982Z,69.22
2023-01-06T08:17:13.844Z,66.94
2023-01-06T08:18:13.834Z,63.79
2023-01-06T08:19:13.906Z,61.71
2023-01-06T08:20:45.770Z,66.71
2023-01-06T08:21:13.842Z,67.22
2023-01-06T08:22:13.801Z,64.09
2023-01-06T08:23:13.903Z,68.41
2023-01-06T08:24:13.784Z,65.67
2023-01-06T08:25:13.778Z,64.73
2023-01-06T08:26:13.826Z,65.15
2023-01-06T08:27:13.778Z,62.01
2023-01-06T08:28:13.777Z,65.28
2023-01-06T08:29:13.762Z,67.47
2023-01-06T08:30:13.881Z,66.41
2023-01-06T08:31:13.823Z,65.28
2023-01-06T08:32:13.743Z,66.97
2023-01-06T08:33:13.737Z,66.70
2023-01-06T08:34:13.809Z,69.41
2023-01-06T08:35:13.805Z,69.46
2023-01-06T08:36:13.692Z,65.09
2023-01-06T08:37:13.692Z,69.81
2023-01-06T08:38:13.695Z,65.56
2023-01-06T08:39:13.769Z,66.45
2023-01-06T08:40:13.669Z,64.92
2023-01-06T08:41:13.654Z,61.49
2023-01-06T08:42:13.642Z,63.29
2023-01-06T08:43:13.649Z,64.31
2023-01-06T08:44:13.645Z,67.23
2023-01-06T08:45:13.705Z,62.63
2023-01-06T08:46:13.661Z,69.48
2023-01-06T08:47:13.627Z,65.74
2023-01-06T08:48:13.617Z,63.69
2023-01-06T08:49:13.613Z,67.00
2023-01-06T08:50:13.701Z,65.81
2023-01-06T08:51:13.563Z,65.64
2023-01-06T08:52:13.638Z,65.51
2023-01-06T08:53:13.655Z,60.02
2023-01-06T08:54:13.555Z,68.51
2023-01-06T08:55:13.551Z,61.66
2023-01-06T08:56:13.611Z,65.33
2023-01-06T08:57:13.544Z,66.30
2023-01-06T08:58:13.557Z,63.09
2023-01-06T08:59:13.514Z,64.30
2023-01-06T09:00:13.504Z,69.09
2023-01-06T09:01:13.668Z,68.85
2023-01-06T09:02:13.615Z,63.21
2023-01-06T09:03:13.497Z,69.42
2023-01-06T09:04:13.544Z,65.54
2023-01-06T09:05:13.511Z,62.74
2023-01-06T09:06:13.468Z,66.30
2023-01-06T09:07:13.461Z,62.48
2023-01-06T09:08:13.437Z,62.13
2023-01-06T09:09:13.556Z,65.19
2023-01-06T09:10:13.446Z,69.64
2023-01-06T09:11:14.131Z,63.53
2023-01-06T09:12:13.426Z,64.80
2023-01-06T09:13:13.480Z,66.55
2023-01-06T09:14:13.410Z,68.54
2023-01-06T09:15:13.419Z,61.80
2023-01-06T09:16:13.395Z,64.13
2023-01-06T09:17:13.388Z,68.32
2023-01-06T09:18:13.400Z,58.44
2023-01-06T09:19:13.390Z,66.63
2023-01-06T09:20:13.401Z,69.16
2023-01-06T09:21:13.383Z,60.53
2023-01-06T09:22:13.381Z,70.85
2023-01-06T09:23:13.419Z,65.84
2023-01-06T09:24:13.424Z,66.67
2023-01-06T09:25:13.347Z,67.75
2023-01-06T09:26:13.370Z,59.20
2023-01-06T09:27:13.339Z,60.99
2023-01-06T09:28:13.309Z,68.34
2023-01-06T09:29:13.302Z,66.00
2023-01-06T09:30:13.372Z,68.78
2023-01-06T09:31:13.466Z,64.78
2023-01-06T09:32:13.269Z,62.76
2023-01-06T09:33:13.311Z,62.18
2023-01-06T09:34:13.277Z,59.99
2023-01-06T09:35:13.257Z,65.29
2023-01-06T09:36:13.237Z,58.95
2023-01-06T09:37:13.224Z,61.22
2023-01-06T09:38:13.229Z,64.81
2023-01-06T09:39:13.245Z,66.16
2023-01-06T09:40:13.262Z,66.25
2023-01-06T09:41:13.210Z,68.46
2023-01-06T09:42:13.214Z,67.22
2023-01-06T09:43:13.196Z,68.23
2023-01-06T09:44:13.259Z,69.44
2023-01-06T09:45:49.141Z,67.91
2023-01-06T09:46:14.843Z,60.35
2023-01-06T09:47:45.079Z,69.97
2023-01-06T09:48:13.153Z,62.89
2023-01-06T09:49:13.844Z,68.23
2023-01-06T09:50:13.316Z,68.08
2023-01-06T09:51:13.179Z,68.21
2023-01-06T09:52:13.155Z,67.06
2023-01-06T09:53:13.133Z,63.45
2023-01-06T09:54:13.115Z,66.36
2023-01-06T09:55:13.262Z,66.66
2023-01-06T09:56:13.677Z,68.76
2023-01-06T09:57:13.142Z,61.81
2023-01-06T09:58:13.091Z,68.57
2023-01-06T09:59:13.098Z,69.50
2023-01-06T10:00:13.107Z,68.23
2023-01-06T10:01:13.083Z,68.48
2023-01-06T10:02:13.094Z,66.68
2023-01-06T10:03:13.027Z,65.82
2023-01-06T10:04:13.111Z,64.34
2023-01-06T10:05:13.069Z,63.49
2023-01-06T10:06:13.082Z,66.64
2023-01-06T10:07:13.055Z,68.03
2023-01-06T10:08:13.014Z,66.44
2023-01-06T10:09:13.145Z,59.39
2023-01-06T10:10:13.007Z,69.13
2023-01-06T10:11:13.097Z,67.98
2023-01-06T10:12:13.019Z,63.35
2023-01-06T10:13:12.977Z,65.86
2023-01-06T10:14:13.017Z,67.90
2023-01-06T10:15:12.940Z,66.69
2023-01-06T10:16:12.993Z,64.37
2023-01-06T10:17:12.985Z,67.20
2023-01-06T10:18:13.077Z,65.96
2023-01-06T10:19:12.916Z,60.27
2023-01-06T10:20:12.930Z,73.22
2023-01-06T10:21:12.945Z,67.53
2023-01-06T10:22:12.892Z,68.86
2023-01-06T10:23:12.891Z,62.20
2023-01-06T10:24:12.880Z,64.69
2023-01-06T10:25:12.896Z,62.52
2023-01-06T10:26:12.870Z,67.02
2023-01-06T10:27:12.938Z,65.33
2023-01-06T10:28:13.378Z,69.16
2023-01-06T10:29:12.841Z,64.89
2023-01-06T10:30:12.865Z,64.89
2023-01-06T10:31:12.872Z,64.24
2023-01-06T10:32:12.826Z,64.94
2023-01-06T10:33:12.784Z,68.53
2023-01-06T10:34:12.791Z,63.84
2023-01-06T10:35:12.815Z,70.15
2023-01-06T10:36:12.804Z,66.91
2023-01-06T10:37:12.935Z,60.16
2023-01-06T10:38:12.919Z,69.44
2023-01-06T10:39:12.819Z,68.97
2023-01-06T10:40:12.784Z,65.40
2023-01-06T10:41:12.733Z,69.95
2023-01-06T10:42:12.747Z,65.08
2023-01-06T10:43:13.484Z,65.24
2023-01-06T10:44:12.745Z,57.07
2023-01-06T10:45:12.708Z,69.10
2023-01-06T10:46:12.771Z,66.85
2023-01-06T10:47:12.723Z,64.56
2023-01-06T10:48:13.404Z,66.84
2023-01-06T10:49:12.684Z,66.61
2023-01-06T10:50:12.679Z,68.80
2023-01-06T10:51:12.662Z,65.89
2023-01-06T10:52:13.677Z,64.02
2023-01-06T10:53:12.670Z,68.82
2023-01-06T10:54:12.647Z,66.29
2023-01-06T10:55:12.683Z,63.51
2023-01-06T10:56:12.647Z,69.79
2023-01-06T10:57:12.665Z,66.26
2023-01-06T10:58:12.792Z,63.72
2023-01-06T10:59:12.772Z,70.97
2023-01-06T11:00:12.651Z,67.41
2023-01-06T11:01:12.727Z,65.29
2023-01-06T11:02:12.704Z,70.86
2023-01-06T11:03:32.284Z,65.00
2023-01-06T11:04:14.582Z,67.90
2023-01-06T11:05:12.561Z,66.89
2023-01-06T11:06:12.579Z,67.98
2023-01-06T11:07:12.584Z,59.36
2023-01-06T11:08:44.459Z,70.20
2023-01-06T11:09:12.582Z,70.58
2023-01-06T11:10:44.978Z,69.44
2023-01-06T11:11:26.882Z,68.63
2023-01-06T11:12:13.506Z,69.41
2023-01-06T11:13:44.894Z,70.04
2023-01-06T11:14:12.483Z,71.65
2023-01-06T11:15:12.580Z,66.71
2023-01-06T11:16:12.493Z,63.86
2023-01-06T11:17:13.335Z,71.15
2023-01-06T11:18:12.835Z,69.40
2023-01-06T11:19:12.464Z,58.56
2023-01-06T11:20:12.448Z,67.61
2023-01-06T11:21:12.471Z,64.72
2023-01-06T11:22:12.496Z,66.44
2023-01-06T11:23:12.491Z,65.50
2023-01-06T11:24:12.454Z,68.78
2023-01-06T11:25:12.451Z,64.41
2023-01-06T11:26:12.433Z,68.51
2023-01-06T11:27:12.450Z,66.91
2023-01-06T11:28:12.691Z,67.14
2023-01-06T11:29:12.383Z,68.55
2023-01-06T11:30:13.449Z,59.25
2023-01-06T11:31:12.617Z,69.10
2023-01-06T11:32:12.428Z,66.03
2023-01-06T11:33:12.348Z,63.58
2023-01-06T11:34:12.398Z,68.85
2023-01-06T11:35:12.326Z,66.65
2023-01-06T11:36:12.509Z,66.79
2023-01-06T11:37:12.394Z,62.45
2023-01-06T11:38:12.336Z,66.38
2023-01-06T11:39:12.297Z,65.79
2023-01-06T11:40:12.333Z,66.29
2023-01-06T11:41:12.293Z,68.41
2023-01-06T11:42:12.280Z,67.40
2023-01-06T11:43:12.323Z,63.83
2023-01-06T11:44:12.311Z,70.19
2023-01-06T11:45:13.294Z,69.76
2023-01-06T11:46:12.278Z,65.75
2023-01-06T11:47:12.360Z,63.98
2023-01-06T11:48:12.239Z,67.27
2023-01-06T11:49:12.212Z,61.96
2023-01-06T11:50:12.238Z,67.75
2023-01-06T11:51:12.229Z,67.58
2023-01-06T11:52:12.231Z,65.40
2023-01-06T11:53:12.201Z,69.11
2023-01-06T11:54:12.425Z,61.70
2023-01-06T11:55:13.404Z,68.88
2023-01-06T11:56:13.231Z,65.79
2023-01-06T11:57:12.226Z,68.25
2023-01-06T11:58:12.180Z,67.56
2023-01-06T11:59:12.161Z,64.99
2023-01-06T12:00:12.188Z,64.42
2023-01-06T12:01:12.181Z,66.69
2023-01-06T12:02:12.156Z,66.29
2023-01-06T12:03:12.293Z,66.72
2023-01-06T12:04:12.139Z,62.22
2023-01-06T12:05:12.157Z,68.37
2023-01-06T12:06:12.133Z,68.88
2023-01-06T12:07:12.067Z,67.55
2023-01-06T12:08:12.073Z,66.30
2023-01-06T12:09:12.135Z,71.02
2023-01-06T12:10:12.086Z,68.81
2023-01-06T12:11:12.198Z,61.86
2023-01-06T12:12:12.062Z,53.12
2023-01-06T12:13:12.220Z,68.60
2023-01-06T12:14:23.643Z,67.14
2023-01-06T12:15:14.043Z,67.43
2023-01-06T12:16:12.189Z,69.32
2023-01-06T12:17:12.231Z,64.02
2023-01-06T12:18:12.112Z,68.54
2023-01-06T12:19:12.108Z,66.84
2023-01-06T12:20:13.301Z,65.00
2023-01-06T12:21:12.986Z,70.60
2023-01-06T12:22:12.955Z,67.85
2023-01-06T12:23:11.950Z,67.90
2023-01-06T12:24:11.957Z,68.14
2023-01-06T12:25:11.946Z,67.98
2023-01-06T12:26:11.970Z,62.96
2023-01-06T12:27:11.914Z,65.81
2023-01-06T12:28:11.952Z,64.73
2023-01-06T12:29:11.923Z,68.06
2023-01-06T12:30:12.004Z,68.05
2023-01-06T12:31:11.992Z,70.58
2023-01-06T12:32:11.912Z,65.73
2023-01-06T12:33:11.890Z,70.38
2023-01-06T12:34:11.892Z,67.40
2023-01-06T12:35:11.942Z,69.04
2023-01-06T12:36:11.865Z,65.07
2023-01-06T12:37:11.866Z,68.08
2023-01-06T12:38:11.912Z,66.89
2023-01-06T12:39:11.864Z,71.46
2023-01-06T12:40:11.924Z,66.18
2023-01-06T12:41:11.805Z,67.25
2023-01-06T12:42:12.650Z,63.79
2023-01-06T12:43:11.794Z,67.50
2023-01-06T12:44:11.821Z,69.86
2023-01-06T12:45:11.796Z,69.78
2023-01-06T12:46:11.818Z,66.28
2023-01-06T12:47:11.761Z,66.62
2023-01-06T12:48:11.774Z,69.77
2023-01-06T12:49:11.786Z,66.97
2023-01-06T12:50:11.810Z,70.40
2023-01-06T12:51:11.829Z,66.27
2023-01-06T12:52:11.727Z,64.96
2023-01-06T12:53:19.733Z,67.26
2023-01-06T12:54:13.721Z,64.69
2023-01-06T12:55:11.732Z,68.77
2023-01-06T12:56:11.814Z,69.42
2023-01-06T12:57:11.700Z,66.70
2023-01-06T12:58:44.647Z,70.48
2023-01-06T12:59:11.681Z,71.32
2023-01-06T13:00:11.705Z,69.27
2023-01-06T13:01:11.902Z,63.63
2023-01-06T13:02:11.790Z,64.89
2023-01-06T13:03:11.722Z,68.85
2023-01-06T13:04:11.685Z,65.41
2023-01-06T13:05:11.700Z,65.24
2023-01-06T13:06:11.626Z,60.82
2023-01-06T13:07:12.340Z,66.86
2023-01-06T13:08:12.380Z,66.74
2023-01-06T13:09:11.657Z,68.93
2023-01-06T13:10:11.666Z,69.41